Time;durP1;ratioP1;P1;durP2;ratioP2;P2;SDS_P1;SDS_P2;PMS_P1;PMS_P2;Temp;Humidity;BMP_temperature;BMP_pressure;BME280_temperature;BME280_humidity;BME280_pressure;Samples;Min_cycle;Max_cycle;Signal;HPM_P1;HPM_P2
2022/08/27 00:01:41;;;;;;;11.25;6.30;;;;;;;;;;5055459;28;20203;-77
2022/08/27 00:04:11;;;;;;;11.02;6.35;;;;;;;;;;5055518;28;20660;-76
2022/08/27 00:06:39;;;;;;;11.40;6.00;;;;;;;;;;5055868;28;20206;-77
2022/08/27 00:09:08;;;;;;;11.15;6.15;;;;;;;;;;5055291;28;20272;-77
2022/08/27 00:11:36;;;;;;;11.82;6.75;;;;;;;;;;5055704;28;20702;-76
2022/08/27 00:14:05;;;;;;;9.60;6.30;;;;;;;;;;5054695;28;20199;-77
2022/08/27 00:16:33;;;;;;;10.43;6.70;;;;;;;;;;5055503;28;20656;-77
2022/08/27 00:19:02;;;;;;;9.45;6.85;;;;;;;;;;5055579;28;20748;-78
2022/08/27 00:21:33;;;;;;;10.25;6.50;;;;;;;;;;5055249;28;20202;-77
2022/08/27 00:24:01;;;;;;;10.57;6.35;;;;;;;;;;5054617;28;20199;-77
2022/08/27 00:26:30;;;;;;;10.55;6.20;;;;;;;;;;5054811;28;20269;-77
2022/08/27 00:28:58;;;;;;;8.82;6.00;;;;;;;;;;5054458;28;20569;-77
2022/08/27 00:31:27;;;;;;;10.38;5.47;;;;;;;;;;5054255;28;20208;-77
2022/08/27 00:33:56;;;;;;;13.20;5.97;;;;;;;;;;5054867;28;20207;-77
2022/08/27 00:36:24;;;;;;;13.40;5.65;;;;;;;;;;5054379;28;20207;-76
2022/08/27 00:38:54;;;;;;;10.98;6.03;;;;;;;;;;5054274;28;20719;-77
2022/08/27 00:41:23;;;;;;;11.55;5.78;;;;;;;;;;5054510;28;20195;-77
2022/08/27 00:43:53;;;;;;;14.05;6.05;;;;;;;;;;5054486;28;20211;-77
2022/08/27 00:46:24;;;;;;;10.50;5.75;;;;;;;;;;5054560;28;20209;-77
2022/08/27 00:48:54;;;;;;;12.40;6.32;;;;;;;;;;5055358;28;20184;-77
2022/08/27 00:51:23;;;;;;;10.32;5.68;;;;;;;;;;5054716;28;20245;-77
2022/08/27 00:53:52;;;;;;;14.35;6.35;;;;;;;;;;5054483;28;20207;-76
2022/08/27 00:56:23;;;;;;;11.55;6.10;;;;;;;;;;5053871;28;20210;-77
2022/08/27 00:58:52;;;;;;;12.77;5.95;;;;;;;;;;5054671;28;20567;-77
2022/08/27 01:01:22;;;;;;;11.68;5.40;;;;;;;;;;5054211;28;20656;-77
2022/08/27 01:03:52;;;;;;;11.13;5.90;;;;;;;;;;5054258;28;20199;-77
2022/08/27 01:06:22;;;;;;;13.35;5.10;;;;;;;;;;5053961;28;20230;-77
2022/08/27 01:08:52;;;;;;;13.70;5.32;;;;;;;;;;5053620;28;20197;-77
2022/08/27 01:11:23;;;;;;;11.65;5.10;;;;;;;;;;5054004;28;20223;-77
2022/08/27 01:13:52;;;;;;;12.55;4.95;;;;;;;;;;5054394;28;20198;-77
2022/08/27 01:16:30;;;;;;;8.38;4.47;;;;;;;;;;5054665;28;20598;-77
2022/08/27 01:19:00;;;;;;;11.82;4.50;;;;;;;;;;5054111;28;20234;-76
2022/08/27 01:21:31;;;;;;;11.77;4.55;;;;;;;;;;5054514;28;20542;-77
2022/08/27 01:24:02;;;;;;;11.63;4.45;;;;;;;;;;5053849;28;20195;-77
2022/08/27 01:26:32;;;;;;;11.40;4.10;;;;;;;;;;5057351;28;20192;-77
2022/08/27 01:29:01;;;;;;;11.82;4.05;;;;;;;;;;5058232;28;20234;-77
2022/08/27 01:31:30;;;;;;;12.18;3.85;;;;;;;;;;5058033;28;20272;-78
2022/08/27 01:34:00;;;;;;;13.23;4.30;;;;;;;;;;5058087;28;20242;-77
2022/08/27 01:36:29;;;;;;;7.93;3.50;;;;;;;;;;5058109;28;20253;-77
2022/08/27 01:38:57;;;;;;;13.32;3.78;;;;;;;;;;5057993;28;20214;-77
2022/08/27 01:41:26;;;;;;;8.82;3.60;;;;;;;;;;5058218;28;20206;-77
2022/08/27 01:43:57;;;;;;;7.03;3.20;;;;;;;;;;5057828;28;20257;-77
2022/08/27 01:46:27;;;;;;;11.07;3.33;;;;;;;;;;5057888;28;20203;-77
2022/08/27 01:48:56;;;;;;;9.05;3.55;;;;;;;;;;5057801;28;20253;-77
2022/08/27 01:51:24;;;;;;;7.78;3.38;;;;;;;;;;5057427;28;20199;-77
2022/08/27 01:53:53;;;;;;;6.97;3.25;;;;;;;;;;5057468;28;20257;-77
2022/08/27 01:56:22;;;;;;;7.68;3.35;;;;;;;;;;5057527;28;20687;-77
2022/08/27 01:58:51;;;;;;;8.63;3.83;;;;;;;;;;5057144;28;20207;-77
2022/08/27 02:01:20;;;;;;;8.65;3.72;;;;;;;;;;5057172;28;20688;-76
2022/08/27 02:03:49;;;;;;;10.75;3.53;;;;;;;;;;5057606;28;20203;-77
2022/08/27 02:06:17;;;;;;;7.05;3.80;;;;;;;;;;5056863;28;20214;-77
2022/08/27 02:08:46;;;;;;;13.05;4.18;;;;;;;;;;5057016;28;20198;-77
2022/08/27 02:11:14;;;;;;;7.20;3.33;;;;;;;;;;5057471;28;20260;-77
2022/08/27 02:13:43;;;;;;;11.43;3.78;;;;;;;;;;5057530;28;20249;-77
2022/08/27 02:16:11;;;;;;;8.68;4.25;;;;;;;;;;5057089;28;20214;-76
2022/08/27 02:18:41;;;;;;;10.88;3.95;;;;;;;;;;5057177;28;20207;-78
2022/08/27 02:21:11;;;;;;;9.40;3.85;;;;;;;;;;5057224;28;20248;-78
2022/08/27 02:23:40;;;;;;;8.43;3.60;;;;;;;;;;5057513;28;20195;-77
2022/08/27 02:26:09;;;;;;;8.13;3.78;;;;;;;;;;5056779;28;20203;-77
2022/08/27 02:28:37;;;;;;;13.50;4.30;;;;;;;;;;5057008;28;20203;-77
2022/08/27 02:31:06;;;;;;;7.32;3.80;;;;;;;;;;5056630;28;20207;-76
2022/08/27 02:33:35;;;;;;;10.77;4.10;;;;;;;;;;5073833;28;20230;-75
2022/08/27 02:36:05;;;;;;;11.00;3.65;;;;;;;;;;5075006;28;20203;-75
2022/08/27 02:38:33;;;;;;;10.98;3.80;;;;;;;;;;5076184;28;20209;-76
2022/08/27 02:41:02;;;;;;;11.35;3.88;;;;;;;;;;5073906;28;20757;-76
2022/08/27 02:43:31;;;;;;;9.98;3.67;;;;;;;;;;5062302;28;20201;-75
2022/08/27 02:46:01;;;;;;;9.15;3.60;;;;;;;;;;5075878;28;20191;-75
2022/08/27 02:48:30;;;;;;;10.18;3.40;;;;;;;;;;5075683;28;20620;-76
2022/08/27 02:50:58;;;;;;;9.38;3.13;;;;;;;;;;5057889;28;20231;-75
2022/08/27 02:53:28;;;;;;;8.88;3.50;;;;;;;;;;5056676;28;20219;-76
2022/08/27 02:55:56;;;;;;;9.40;2.95;;;;;;;;;;5074074;28;20268;-75
2022/08/27 02:58:25;;;;;;;11.45;3.53;;;;;;;;;;5071519;28;20210;-77
2022/08/27 03:00:55;;;;;;;8.35;2.65;;;;;;;;;;5058619;28;20665;-75
2022/08/27 03:03:23;;;;;;;11.63;3.53;;;;;;;;;;5068917;28;20202;-76
2022/08/27 03:05:52;;;;;;;7.60;2.70;;;;;;;;;;5075057;28;20203;-75
2022/08/27 03:08:20;;;;;;;8.88;3.08;;;;;;;;;;5075448;28;20667;-75
2022/08/27 03:10:50;;;;;;;6.47;2.80;;;;;;;;;;5074496;28;20226;-75
2022/08/27 03:13:18;;;;;;;7.05;2.85;;;;;;;;;;5073070;28;20602;-76
2022/08/27 03:15:47;;;;;;;6.50;2.63;;;;;;;;;;5064792;28;20244;-75
2022/08/27 03:18:17;;;;;;;9.02;2.85;;;;;;;;;;5074905;28;20199;-76
2022/08/27 03:20:46;;;;;;;6.85;2.55;;;;;;;;;;5074842;28;20244;-75
2022/08/27 03:23:15;;;;;;;9.20;2.63;;;;;;;;;;5064316;28;20245;-75
2022/08/27 03:25:44;;;;;;;8.93;2.45;;;;;;;;;;5068179;28;20203;-76
2022/08/27 03:28:15;;;;;;;9.45;2.78;;;;;;;;;;5055342;28;20203;-76
2022/08/27 03:30:50;;;;;;;8.13;2.30;;;;;;;;;;5066453;28;20285;-75
2022/08/27 03:33:19;;;;;;;10.13;2.63;;;;;;;;;;5055905;28;20314;-75
2022/08/27 03:35:48;;;;;;;8.77;2.42;;;;;;;;;;5064188;28;20202;-75
2022/08/27 03:38:19;;;;;;;13.65;2.63;;;;;;;;;;5072714;28;20199;-75
2022/08/27 03:40:47;;;;;;;7.25;2.70;;;;;;;;;;5074665;28;20729;-75
2022/08/27 03:43:19;;;;;;;10.52;2.40;;;;;;;;;;5074813;28;20207;-76
2022/08/27 03:45:48;;;;;;;6.82;2.58;;;;;;;;;;5073204;28;20206;-75
2022/08/27 03:48:29;;;;;;;8.20;2.40;;;;;;;;;;5072287;28;20293;-75
2022/08/27 03:50:57;;;;;;;10.45;2.70;;;;;;;;;;5070696;28;20222;-79
2022/08/27 03:53:27;;;;;;;11.90;2.55;;;;;;;;;;5075940;28;20234;-78
2022/08/27 03:55:55;;;;;;;9.75;2.88;;;;;;;;;;5075919;28;20209;-79
2022/08/27 03:58:25;;;;;;;7.85;2.70;;;;;;;;;;5076082;28;20202;-78
2022/08/27 04:00:53;;;;;;;6.80;2.40;;;;;;;;;;5076415;28;20230;-78
2022/08/27 04:03:22;;;;;;;8.35;2.53;;;;;;;;;;5076511;28;20209;-79
2022/08/27 04:05:53;;;;;;;10.38;2.53;;;;;;;;;;5076645;28;20236;-78
2022/08/27 04:08:21;;;;;;;8.95;2.97;;;;;;;;;;5076037;28;20202;-79
2022/08/27 04:10:50;;;;;;;6.97;2.70;;;;;;;;;;5076198;28;20691;-78
2022/08/27 04:13:19;;;;;;;10.13;2.90;;;;;;;;;;5074888;28;20554;-78
2022/08/27 04:15:49;;;;;;;9.25;2.72;;;;;;;;;;5075292;28;20202;-79
2022/08/27 04:18:18;;;;;;;8.25;2.83;;;;;;;;;;5075119;28;20210;-79
2022/08/27 04:20:47;;;;;;;13.25;3.38;;;;;;;;;;5076006;28;20230;-79
2022/08/27 04:23:15;;;;;;;11.57;3.53;;;;;;;;;;5075484;28;20203;-78
2022/08/27 04:25:44;;;;;;;9.32;3.20;;;;;;;;;;5075689;28;20213;-78
2022/08/27 04:28:13;;;;;;;12.73;3.58;;;;;;;;;;5075543;28;20214;-78
2022/08/27 04:30:43;;;;;;;9.40;2.90;;;;;;;;;;5075537;28;20234;-78
2022/08/27 04:33:13;;;;;;;10.63;2.72;;;;;;;;;;5076109;28;20227;-79
2022/08/27 04:35:42;;;;;;;10.40;3.00;;;;;;;;;;5076457;28;20554;-79
2022/08/27 04:38:11;;;;;;;7.60;2.53;;;;;;;;;;5075789;28;20659;-78
2022/08/27 04:43:28;;;;;;;9.35;2.50;;;;;;;;;;5075858;28;20186;-78
2022/08/27 04:45:56;;;;;;;9.70;2.70;;;;;;;;;;5075548;28;20187;-79
2022/08/27 04:48:26;;;;;;;9.45;3.00;;;;;;;;;;5074415;28;20207;-78
2022/08/27 04:50:55;;;;;;;5.88;2.75;;;;;;;;;;5074907;28;20226;-78
2022/08/27 04:53:23;;;;;;;9.68;2.53;;;;;;;;;;5075480;28;20222;-78
2022/08/27 04:55:52;;;;;;;9.75;2.80;;;;;;;;;;5075980;28;20198;-80
2022/08/27 04:58:22;;;;;;;8.90;3.28;;;;;;;;;;5075656;28;20209;-79
2022/08/27 05:00:52;;;;;;;7.07;2.83;;;;;;;;;;5074751;28;20280;-79
2022/08/27 05:03:22;;;;;;;12.32;3.20;;;;;;;;;;5075195;28;20186;-79
2022/08/27 05:05:53;;;;;;;10.45;2.97;;;;;;;;;;5074876;28;20210;-79
2022/08/27 05:08:21;;;;;;;8.30;2.75;;;;;;;;;;5074659;28;20256;-78
2022/08/27 05:10:50;;;;;;;9.45;2.80;;;;;;;;;;5074325;28;20222;-77
2022/08/27 05:13:21;;;;;;;9.68;2.80;;;;;;;;;;5074340;28;20233;-77
2022/08/27 05:15:49;;;;;;;8.48;2.58;;;;;;;;;;5074326;28;20210;-77
2022/08/27 05:18:18;;;;;;;9.05;2.80;;;;;;;;;;5074390;28;20237;-77
2022/08/27 05:20:48;;;;;;;8.60;2.45;;;;;;;;;;5074344;28;20226;-77
2022/08/27 05:23:19;;;;;;;5.80;2.20;;;;;;;;;;5074275;28;20191;-77
2022/08/27 05:25:48;;;;;;;9.48;2.75;;;;;;;;;;5074343;28;20194;-77
2022/08/27 05:28:20;;;;;;;6.25;2.25;;;;;;;;;;5073968;28;20214;-77
2022/08/27 05:30:56;;;;;;;9.15;2.40;;;;;;;;;;5074155;28;20275;-77
2022/08/27 05:33:25;;;;;;;8.50;2.58;;;;;;;;;;5073535;28;20677;-76
2022/08/27 05:35:55;;;;;;;8.52;2.78;;;;;;;;;;5072974;28;20543;-77
2022/08/27 05:38:26;;;;;;;7.13;2.28;;;;;;;;;;5074705;28;20209;-77
2022/08/27 05:41:03;;;;;;;8.43;2.70;;;;;;;;;;5074769;28;20222;-78
2022/08/27 05:43:32;;;;;;;6.75;2.60;;;;;;;;;;5074623;28;20183;-77
2022/08/27 05:46:04;;;;;;;7.28;2.53;;;;;;;;;;5073772;28;20210;-77
2022/08/27 05:48:33;;;;;;;8.23;2.42;;;;;;;;;;5073871;28;20228;-77
2022/08/27 05:51:08;;;;;;;8.77;2.25;;;;;;;;;;5073812;28;20214;-78
2022/08/27 05:53:38;;;;;;;6.80;2.30;;;;;;;;;;5073987;28;20643;-78
2022/08/27 05:56:12;;;;;;;6.50;2.17;;;;;;;;;;5073798;28;20191;-77
2022/08/27 06:01:26;;;;;;;9.00;2.47;;;;;;;;;;5073657;28;20197;-77
2022/08/27 06:03:55;;;;;;;5.45;2.13;;;;;;;;;;5073454;28;20201;-77
2022/08/27 06:06:23;;;;;;;6.28;2.42;;;;;;;;;;5073120;28;20206;-77
2022/08/27 06:08:54;;;;;;;6.93;2.67;;;;;;;;;;5073877;28;20202;-77
2022/08/27 06:11:23;;;;;;;8.13;2.40;;;;;;;;;;5073831;28;20191;-77
2022/08/27 06:13:51;;;;;;;6.97;2.30;;;;;;;;;;5076902;28;20206;-77
2022/08/27 06:16:26;;;;;;;10.55;2.38;;;;;;;;;;5076764;28;20187;-77
2022/08/27 06:18:56;;;;;;;4.80;1.88;;;;;;;;;;5076780;28;20253;-77
2022/08/27 06:21:25;;;;;;;5.90;2.00;;;;;;;;;;5077102;28;20256;-77
2022/08/27 06:23:55;;;;;;;11.15;2.20;;;;;;;;;;5077085;28;20288;-77
2022/08/27 06:26:25;;;;;;;4.45;1.80;;;;;;;;;;5077915;28;20193;-77
2022/08/27 06:28:54;;;;;;;5.93;2.08;;;;;;;;;;5077186;28;20206;-77
2022/08/27 06:31:24;;;;;;;6.00;2.20;;;;;;;;;;5077037;28;20193;-77
2022/08/27 06:33:53;;;;;;;6.88;2.10;;;;;;;;;;5076871;28;20206;-77
2022/08/27 06:36:24;;;;;;;5.15;1.83;;;;;;;;;;5076684;28;20207;-77
2022/08/27 06:38:55;;;;;;;7.40;2.15;;;;;;;;;;5077270;28;20195;-77
2022/08/27 06:41:25;;;;;;;9.57;2.28;;;;;;;;;;5076806;28;20206;-77
2022/08/27 06:43:54;;;;;;;7.13;2.08;;;;;;;;;;5076863;28;20264;-77
2022/08/27 06:46:24;;;;;;;6.95;1.95;;;;;;;;;;5076882;28;20617;-77
2022/08/27 06:48:52;;;;;;;7.60;2.20;;;;;;;;;;5076509;28;20659;-77
2022/08/27 06:51:24;;;;;;;10.00;5.28;;;;;;;;;;5076814;28;20206;-77
2022/08/27 06:53:55;;;;;;;8.45;3.78;;;;;;;;;;5076523;28;20186;-77
2022/08/27 06:56:23;;;;;;;5.38;2.25;;;;;;;;;;5076941;28;20210;-77
2022/08/27 06:58:54;;;;;;;9.05;2.30;;;;;;;;;;5076497;28;20206;-78
2022/08/27 07:01:23;;;;;;;3.88;1.98;;;;;;;;;;5076592;28;20183;-78
2022/08/27 07:03:51;;;;;;;6.50;1.75;;;;;;;;;;5076312;28;20202;-77
2022/08/27 07:06:21;;;;;;;5.57;1.80;;;;;;;;;;5076705;28;20205;-77
2022/08/27 07:08:50;;;;;;;6.32;2.15;;;;;;;;;;5076294;28;20202;-77
2022/08/27 07:11:22;;;;;;;7.40;2.00;;;;;;;;;;5076228;28;20244;-77
2022/08/27 07:13:51;;;;;;;4.80;2.00;;;;;;;;;;5076319;28;20223;-77
2022/08/27 07:16:21;;;;;;;5.90;2.40;;;;;;;;;;5075773;28;20236;-77
2022/08/27 07:18:51;;;;;;;5.20;2.20;;;;;;;;;;5075788;28;20187;-77
2022/08/27 07:21:20;;;;;;;7.78;2.00;;;;;;;;;;5076271;28;20203;-77
2022/08/27 07:23:49;;;;;;;4.95;2.00;;;;;;;;;;5074625;28;20213;-76
2022/08/27 07:26:19;;;;;;;6.03;2.20;;;;;;;;;;5076062;28;20318;-78
2022/08/27 07:28:48;;;;;;;5.28;1.90;;;;;;;;;;5075758;28;20206;-77
2022/08/27 07:31:19;;;;;;;4.20;2.10;;;;;;;;;;5076110;28;20186;-77
2022/08/27 07:33:47;;;;;;;4.03;1.80;;;;;;;;;;5075910;28;20277;-77
2022/08/27 07:36:20;;;;;;;6.93;2.00;;;;;;;;;;5075277;28;20237;-78
2022/08/27 07:38:50;;;;;;;10.25;2.30;;;;;;;;;;5076469;28;20206;-77
2022/08/27 07:41:29;;;;;;;7.75;2.60;;;;;;;;;;5076794;28;20221;-77
2022/08/27 07:47:02;;;;;;;3.33;2.20;;;;;;;;;;5043559;28;20206;-78
2022/08/27 07:49:34;;;;;;;6.15;2.10;;;;;;;;;;5075864;28;20226;-77
2022/08/27 07:52:02;;;;;;;7.47;2.25;;;;;;;;;;5076272;28;20217;-78
2022/08/27 07:54:32;;;;;;;4.05;2.08;;;;;;;;;;5076404;28;20205;-78
2022/08/27 07:57:00;;;;;;;7.07;2.20;;;;;;;;;;5076719;28;20616;-78
2022/08/27 07:59:31;;;;;;;8.95;2.55;;;;;;;;;;5076340;28;20230;-78
2022/08/27 08:01:59;;;;;;;8.55;2.25;;;;;;;;;;5076561;28;20643;-76
2022/08/27 08:04:28;;;;;;;5.40;2.20;;;;;;;;;;5075817;28;20618;-79
2022/08/27 08:06:56;;;;;;;3.78;2.20;;;;;;;;;;5075419;28;21004;-79
2022/08/27 08:09:25;;;;;;;5.70;1.90;;;;;;;;;;5075184;28;20226;-78
2022/08/27 08:11:53;;;;;;;7.22;2.22;;;;;;;;;;5075232;28;20210;-77
2022/08/27 08:14:22;;;;;;;5.45;1.80;;;;;;;;;;5075372;28;20628;-78
2022/08/27 08:16:52;;;;;;;6.13;1.90;;;;;;;;;;5075335;28;20233;-77
2022/08/27 08:19:20;;;;;;;6.50;2.40;;;;;;;;;;5075657;28;20222;-77
2022/08/27 08:21:49;;;;;;;3.92;1.90;;;;;;;;;;5075608;28;20206;-78
2022/08/27 08:24:26;;;;;;;7.75;2.30;;;;;;;;;;5075681;28;20217;-77
2022/08/27 08:26:55;;;;;;;5.75;2.35;;;;;;;;;;5075146;28;20674;-77
2022/08/27 08:29:23;;;;;;;6.30;2.13;;;;;;;;;;5074964;28;20717;-78
2022/08/27 08:31:53;;;;;;;4.82;2.03;;;;;;;;;;5074979;28;20202;-77
2022/08/27 08:34:21;;;;;;;7.75;2.35;;;;;;;;;;5075288;28;20651;-79
2022/08/27 08:36:50;;;;;;;8.43;2.63;;;;;;;;;;5076018;28;20225;-79
2022/08/27 08:39:22;;;;;;;5.43;2.47;;;;;;;;;;5075652;28;20222;-78
2022/08/27 08:41:52;;;;;;;7.40;2.42;;;;;;;;;;5075840;28;20198;-79
2022/08/27 08:44:25;;;;;;;10.02;3.00;;;;;;;;;;5076189;28;20643;-78
2022/08/27 08:46:57;;;;;;;10.90;3.10;;;;;;;;;;5075745;28;20186;-78
2022/08/27 08:49:31;;;;;;;7.90;3.08;;;;;;;;;;5075669;28;20226;-79
2022/08/27 08:52:06;;;;;;;7.30;3.22;;;;;;;;;;5075788;28;20191;-78
2022/08/27 08:54:35;;;;;;;8.02;3.25;;;;;;;;;;5075894;28;20202;-77
2022/08/27 08:57:06;;;;;;;8.05;3.05;;;;;;;;;;5075663;28;20629;-78
2022/08/27 08:59:37;;;;;;;7.43;2.55;;;;;;;;;;5075252;28;20226;-74
2022/08/27 09:02:08;;;;;;;6.28;2.80;;;;;;;;;;5059363;28;20234;-77
2022/08/27 09:04:41;;;;;;;10.48;2.70;;;;;;;;;;5061207;28;20670;-77
2022/08/27 09:07:13;;;;;;;10.05;3.47;;;;;;;;;;5073428;28;20628;-77
2022/08/27 09:09:47;;;;;;;8.60;2.90;;;;;;;;;;5067218;28;20223;-77
2022/08/27 09:12:18;;;;;;;7.93;2.70;;;;;;;;;;5068674;28;20210;-77
2022/08/27 09:14:48;;;;;;;6.25;2.70;;;;;;;;;;5076919;28;20547;-77
2022/08/27 09:17:19;;;;;;;5.47;2.50;;;;;;;;;;5070576;28;20654;-75
2022/08/27 09:19:48;;;;;;;8.98;2.50;;;;;;;;;;5065391;28;20226;-75
2022/08/27 09:22:23;;;;;;;5.82;2.70;;;;;;;;;;5077572;28;20205;-75
2022/08/27 09:24:56;;;;;;;7.82;2.95;;;;;;;;;;5064880;28;20217;-76
2022/08/27 09:27:24;;;;;;;6.50;3.20;;;;;;;;;;5075266;28;20557;-76
2022/08/27 09:29:54;;;;;;;8.35;2.80;;;;;;;;;;5063335;28;20230;-75
2022/08/27 09:32:26;;;;;;;7.63;3.00;;;;;;;;;;5061452;28;20199;-75
2022/08/27 09:34:57;;;;;;;7.00;2.70;;;;;;;;;;5072069;28;20698;-75
2022/08/27 09:37:28;;;;;;;6.68;2.70;;;;;;;;;;5073478;28;20587;-75
2022/08/27 09:40:06;;;;;;;5.72;2.13;;;;;;;;;;5073353;28;20230;-75
2022/08/27 09:42:52;;;;;;;6.60;2.65;;;;;;;;;;5063955;28;20207;-75
2022/08/27 09:45:22;;;;;;;8.50;2.65;;;;;;;;;;5082534;28;20212;-74
2022/08/27 09:47:53;;;;;;;4.97;2.40;;;;;;;;;;5082395;28;20356;-75
2022/08/27 09:50:23;;;;;;;5.38;2.28;;;;;;;;;;5077166;28;20226;-75
2022/08/27 09:52:54;;;;;;;7.80;2.50;;;;;;;;;;5081616;28;20252;-75
2022/08/27 09:55:30;;;;;;;9.57;2.60;;;;;;;;;;5072763;28;20198;-75
2022/08/27 09:57:59;;;;;;;4.90;2.72;;;;;;;;;;5068542;28;20229;-75
2022/08/27 10:00:30;;;;;;;9.15;2.35;;;;;;;;;;5068520;28;20226;-75
2022/08/27 10:03:01;;;;;;;6.88;2.58;;;;;;;;;;5070868;28;20202;-75
2022/08/27 10:05:31;;;;;;;5.55;2.53;;;;;;;;;;5060348;28;20210;-75
2022/08/27 10:08:01;;;;;;;6.80;2.17;;;;;;;;;;5077354;28;20281;-75
2022/08/27 10:10:36;;;;;;;5.18;2.38;;;;;;;;;;5076556;28;20245;-75
2022/08/27 10:13:11;;;;;;;6.60;2.40;;;;;;;;;;5074515;28;20197;-75
2022/08/27 10:15:42;;;;;;;6.90;2.40;;;;;;;;;;5073945;28;20198;-75
2022/08/27 10:18:22;;;;;;;5.82;2.47;;;;;;;;;;5075494;28;20186;-74
2022/08/27 10:20:55;;;;;;;5.85;2.10;;;;;;;;;;5077799;28;20217;-74
2022/08/27 10:23:32;;;;;;;6.55;2.58;;;;;;;;;;5076133;28;20248;-74
2022/08/27 10:26:05;;;;;;;6.47;2.00;;;;;;;;;;5060145;28;20210;-74
2022/08/27 10:28:40;;;;;;;8.13;2.30;;;;;;;;;;5075881;28;20195;-74
2022/08/27 10:31:19;;;;;;;5.90;2.35;;;;;;;;;;5076171;28;20202;-74
2022/08/27 10:33:59;;;;;;;7.47;2.35;;;;;;;;;;5076209;28;20198;-75
2022/08/27 10:36:35;;;;;;;5.47;2.20;;;;;;;;;;5072167;28;20300;-75
2022/08/27 10:39:08;;;;;;;5.55;2.50;;;;;;;;;;5087178;28;20223;-74
2022/08/27 10:41:40;;;;;;;6.90;2.30;;;;;;;;;;5069108;28;20210;-74
2022/08/27 10:44:19;;;;;;;5.15;2.30;;;;;;;;;;5074653;28;20202;-75
2022/08/27 10:46:57;;;;;;;7.75;2.65;;;;;;;;;;5064025;28;20199;-74
2022/08/27 10:49:34;;;;;;;5.43;2.38;;;;;;;;;;5074590;28;20222;-74
2022/08/27 10:52:07;;;;;;;7.18;2.42;;;;;;;;;;5063052;28;20206;-75
2022/08/27 10:54:38;;;;;;;6.35;2.53;;;;;;;;;;5067118;28;20635;-74
2022/08/27 10:57:13;;;;;;;5.57;2.33;;;;;;;;;;5068623;28;20218;-74
2022/08/27 11:00:05;;;;;;;5.80;2.20;;;;;;;;;;5073907;28;20226;-74
2022/08/27 11:02:36;;;;;;;6.15;2.40;;;;;;;;;;5067629;28;20221;-74
2022/08/27 11:05:16;;;;;;;8.70;2.50;;;;;;;;;;5067812;28;20198;-74
2022/08/27 11:07:47;;;;;;;5.28;2.35;;;;;;;;;;5055573;28;20385;-74
2022/08/27 11:10:19;;;;;;;6.93;2.38;;;;;;;;;;5068014;28;20690;-74
2022/08/27 11:12:50;;;;;;;8.18;2.47;;;;;;;;;;5070734;28;20233;-74
2022/08/27 11:15:20;;;;;;;6.55;2.53;;;;;;;;;;5074964;28;20244;-75
2022/08/27 11:17:53;;;;;;;7.90;2.60;;;;;;;;;;5075014;28;20234;-74
2022/08/27 11:20:25;;;;;;;4.78;2.25;;;;;;;;;;5074917;28;20222;-76
2022/08/27 11:22:57;;;;;;;6.18;2.42;;;;;;;;;;5074236;28;20200;-74
2022/08/27 11:25:31;;;;;;;6.55;2.35;;;;;;;;;;5071678;28;20248;-74
2022/08/27 11:28:01;;;;;;;6.47;2.30;;;;;;;;;;5065813;28;20204;-74
2022/08/27 11:30:36;;;;;;;7.15;2.90;;;;;;;;;;5073876;28;20225;-75
2022/08/27 11:33:08;;;;;;;6.63;2.50;;;;;;;;;;5065140;28;20199;-76
2022/08/27 11:35:47;;;;;;;9.90;2.70;;;;;;;;;;5070926;28;20720;-74
2022/08/27 11:38:26;;;;;;;6.55;2.60;;;;;;;;;;5075209;28;20213;-75
2022/08/27 11:40:59;;;;;;;6.72;2.60;;;;;;;;;;5084611;28;20240;-74
2022/08/27 11:43:29;;;;;;;6.40;2.67;;;;;;;;;;5080638;28;20199;-74
2022/08/27 11:45:58;;;;;;;9.02;3.03;;;;;;;;;;5057756;28;20344;-74
2022/08/27 11:48:29;;;;;;;7.03;2.60;;;;;;;;;;5069093;28;20243;-74
2022/08/27 11:51:00;;;;;;;7.95;2.75;;;;;;;;;;5076304;28;20221;-74
2022/08/27 11:53:32;;;;;;;7.15;2.67;;;;;;;;;;5072408;28;20256;-74
2022/08/27 11:56:10;;;;;;;7.25;2.38;;;;;;;;;;5054496;28;20624;-73
2022/08/27 11:58:39;;;;;;;5.88;2.47;;;;;;;;;;5066729;28;20751;-73
2022/08/27 12:01:26;;;;;;;8.48;2.60;;;;;;;;;;5074418;28;20643;-73
2022/08/27 12:04:01;;;;;;;7.68;2.25;;;;;;;;;;5074615;28;20191;-74
2022/08/27 12:06:40;;;;;;;6.97;2.33;;;;;;;;;;5074505;28;20202;-74
2022/08/27 12:09:15;;;;;;;8.13;2.80;;;;;;;;;;5058501;28;20614;-73
2022/08/27 12:11:48;;;;;;;7.32;2.53;;;;;;;;;;5054411;28;20202;-74
2022/08/27 12:14:29;;;;;;;6.32;2.55;;;;;;;;;;5077207;28;20552;-74
2022/08/27 12:17:00;;;;;;;8.38;2.47;;;;;;;;;;5062078;28;20217;-73
2022/08/27 12:19:37;;;;;;;8.45;2.55;;;;;;;;;;5053929;28;20223;-74
2022/08/27 12:22:15;;;;;;;8.73;2.35;;;;;;;;;;5053655;28;20240;-74
2022/08/27 12:24:49;;;;;;;9.40;2.67;;;;;;;;;;5053971;28;20222;-73
2022/08/27 12:27:28;;;;;;;6.05;2.63;;;;;;;;;;5067127;28;20201;-73
2022/08/27 12:29:58;;;;;;;11.02;2.42;;;;;;;;;;5080273;28;20292;-74
2022/08/27 12:32:28;;;;;;;7.88;2.80;;;;;;;;;;5075238;28;20211;-75
2022/08/27 12:35:05;;;;;;;9.85;2.70;;;;;;;;;;5094319;28;20202;-74
2022/08/27 12:37:36;;;;;;;8.27;2.63;;;;;;;;;;5076362;28;20214;-74
2022/08/27 12:40:09;;;;;;;8.55;2.30;;;;;;;;;;5053855;28;20236;-73
2022/08/27 12:42:38;;;;;;;7.10;2.38;;;;;;;;;;5053887;28;20206;-73
2022/08/27 12:45:07;;;;;;;7.63;2.40;;;;;;;;;;5053403;28;20209;-74
2022/08/27 12:47:39;;;;;;;6.57;2.40;;;;;;;;;;5053663;28;20652;-74
2022/08/27 12:50:21;;;;;;;5.45;2.10;;;;;;;;;;5053684;28;20321;-73
2022/08/27 12:53:00;;;;;;;7.65;2.20;;;;;;;;;;5071719;28;20202;-74
2022/08/27 12:55:34;;;;;;;9.40;2.50;;;;;;;;;;5055002;28;20222;-75
2022/08/27 12:58:08;;;;;;;10.07;2.45;;;;;;;;;;5076047;28;20565;-76
2022/08/27 13:00:57;;;;;;;8.60;2.58;;;;;;;;;;5091541;28;20257;-76
2022/08/27 13:03:30;;;;;;;7.22;2.45;;;;;;;;;;5060479;28;20198;-77
2022/08/27 13:06:00;;;;;;;8.95;2.70;;;;;;;;;;5074549;28;20205;-77
2022/08/27 13:08:31;;;;;;;6.60;2.30;;;;;;;;;;5061164;28;20637;-77
2022/08/27 13:11:07;;;;;;;6.20;2.22;;;;;;;;;;5079204;28;20274;-77
2022/08/27 13:13:40;;;;;;;8.88;2.67;;;;;;;;;;5074872;28;20208;-77
2022/08/27 13:16:08;;;;;;;10.20;2.15;;;;;;;;;;5074983;28;20206;-77
2022/08/27 13:18:37;;;;;;;5.80;2.35;;;;;;;;;;5073645;28;20589;-77
2022/08/27 13:21:09;;;;;;;11.35;2.63;;;;;;;;;;5064468;28;20230;-77
2022/08/27 13:23:44;;;;;;;9.85;2.70;;;;;;;;;;5073023;28;20285;-76
2022/08/27 13:26:13;;;;;;;8.75;2.38;;;;;;;;;;5070402;28;20260;-76
2022/08/27 13:28:42;;;;;;;4.50;2.40;;;;;;;;;;5053561;28;20202;-77
2022/08/27 13:31:11;;;;;;;7.63;2.22;;;;;;;;;;5064928;28;20279;-76
2022/08/27 13:33:40;;;;;;;6.43;2.13;;;;;;;;;;5092236;28;20228;-76
2022/08/27 13:36:09;;;;;;;6.85;2.33;;;;;;;;;;5064063;28;20551;-77
2022/08/27 13:38:40;;;;;;;7.25;2.35;;;;;;;;;;5084102;28;20274;-77
2022/08/27 13:41:21;;;;;;;8.00;2.10;;;;;;;;;;5083370;28;20203;-77
2022/08/27 13:43:50;;;;;;;7.72;2.30;;;;;;;;;;5053216;28;20672;-77
2022/08/27 13:46:26;;;;;;;7.47;2.08;;;;;;;;;;5054208;28;20199;-77
2022/08/27 13:48:57;;;;;;;8.68;2.38;;;;;;;;;;5057559;28;20202;-76
2022/08/27 13:51:27;;;;;;;6.75;2.42;;;;;;;;;;5071187;28;20205;-76
2022/08/27 13:54:11;;;;;;;8.10;2.22;;;;;;;;;;5090625;28;20226;-77
2022/08/27 13:56:41;;;;;;;7.50;2.20;;;;;;;;;;5072226;28;20204;-76
2022/08/27 13:59:12;;;;;;;7.15;2.25;;;;;;;;;;5067734;28;20269;-77
2022/08/27 14:01:43;;;;;;;6.53;2.15;;;;;;;;;;5075446;28;20635;-77
2022/08/27 14:04:20;;;;;;;4.95;2.00;;;;;;;;;;5078096;28;20206;-77
2022/08/27 14:06:49;;;;;;;5.28;1.98;;;;;;;;;;5065319;28;20199;-77
2022/08/27 14:09:20;;;;;;;6.25;2.05;;;;;;;;;;5088579;28;20268;-76
2022/08/27 14:11:49;;;;;;;10.52;2.10;;;;;;;;;;5079533;28;20206;-76
2022/08/27 14:14:18;;;;;;;11.10;2.42;;;;;;;;;;5078078;28;20206;-78
2022/08/27 14:16:57;;;;;;;6.22;2.00;;;;;;;;;;5074801;28;20256;-79
2022/08/27 14:19:26;;;;;;;8.15;2.60;;;;;;;;;;5074175;28;20230;-79
2022/08/27 14:21:56;;;;;;;7.93;2.03;;;;;;;;;;5074262;28;20206;-78
2022/08/27 14:24:26;;;;;;;10.15;2.20;;;;;;;;;;5074667;28;20218;-79
2022/08/27 14:27:04;;;;;;;9.93;2.30;;;;;;;;;;5074465;28;20545;-79
2022/08/27 14:29:33;;;;;;;5.45;2.10;;;;;;;;;;5074364;28;20229;-77
2022/08/27 14:32:01;;;;;;;5.22;1.88;;;;;;;;;;5075281;28;20256;-77
2022/08/27 14:34:30;;;;;;;7.07;2.33;;;;;;;;;;5078325;28;20619;-78
2022/08/27 14:36:58;;;;;;;7.35;2.45;;;;;;;;;;5078427;28;20202;-79
2022/08/27 14:39:28;;;;;;;9.30;2.20;;;;;;;;;;5078019;28;20294;-77
2022/08/27 14:41:56;;;;;;;7.30;2.10;;;;;;;;;;5078740;28;20781;-78
2022/08/27 14:44:25;;;;;;;8.25;2.30;;;;;;;;;;5078464;28;20659;-78
2022/08/27 14:46:54;;;;;;;7.30;2.15;;;;;;;;;;5077874;28;20206;-78
2022/08/27 14:49:28;;;;;;;11.48;2.75;;;;;;;;;;5078557;28;20218;-78
2022/08/27 14:51:56;;;;;;;5.25;2.10;;;;;;;;;;5078173;28;20187;-78
2022/08/27 14:54:25;;;;;;;5.90;2.38;;;;;;;;;;5077598;28;20589;-78
2022/08/27 14:57:01;;;;;;;6.38;2.30;;;;;;;;;;5077982;28;20209;-78
2022/08/27 14:59:30;;;;;;;7.53;2.50;;;;;;;;;;5077706;28;20226;-78
2022/08/27 15:02:00;;;;;;;7.70;2.33;;;;;;;;;;5077710;28;20199;-78
2022/08/27 15:04:29;;;;;;;5.95;2.05;;;;;;;;;;5078132;28;20190;-78
2022/08/27 15:06:58;;;;;;;7.45;2.67;;;;;;;;;;5078277;28;20207;-79
2022/08/27 15:09:28;;;;;;;10.15;2.30;;;;;;;;;;5077551;28;20229;-79
2022/08/27 15:11:58;;;;;;;6.38;2.30;;;;;;;;;;5077800;28;20203;-78